sensor_id;sensor_type;location;lat;lon;timestamp;P1;durP1;ratioP1;P2;durP2;ratioP2
20069;SDS011;10195;50.868;4.382;2022-07-29T00:01:32;8.80;;;2.83;;
20069;SDS011;10195;50.868;4.382;2022-07-29T00:03:58;8.20;;;2.00;;
20069;SDS011;10195;50.868;4.382;2022-07-29T00:06:24;9.05;;;1.65;;
20069;SDS011;10195;50.868;4.382;2022-07-29T00:08:49;5.68;;;1.80;;
20069;SDS011;10195;50.868;4.382;2022-07-29T00:11:15;6.68;;;1.85;;
20069;SDS011;10195;50.868;4.382;2022-07-29T00:13:40;6.93;;;2.10;;
20069;SDS011;10195;50.868;4.382;2022-07-29T00:16:06;6.60;;;2.05;;
20069;SDS011;10195;50.868;4.382;2022-07-29T00:18:32;7.10;;;1.83;;
20069;SDS011;10195;50.868;4.382;2022-07-29T00:20:57;10.82;;;2.25;;
20069;SDS011;10195;50.868;4.382;2022-07-29T00:23:23;3.83;;;1.40;;
20069;SDS011;10195;50.868;4.382;2022-07-29T00:25:49;7.07;;;1.70;;
20069;SDS011;10195;50.868;4.382;2022-07-29T00:28:14;3.70;;;1.80;;
20069;SDS011;10195;50.868;4.382;2022-07-29T00:30:40;4.30;;;1.80;;
20069;SDS011;10195;50.868;4.382;2022-07-29T00:33:07;3.28;;;1.45;;
20069;SDS011;10195;50.868;4.382;2022-07-29T00:35:33;5.53;;;1.80;;
20069;SDS011;10195;50.868;4.382;2022-07-29T00:38:08;3.88;;;1.60;;
20069;SDS011;10195;50.868;4.382;2022-07-29T00:40:34;7.53;;;1.65;;
20069;SDS011;10195;50.868;4.382;2022-07-29T00:43:00;7.05;;;1.67;;
20069;SDS011;10195;50.868;4.382;2022-07-29T00:45:26;6.72;;;1.63;;
20069;SDS011;10195;50.868;4.382;2022-07-29T00:47:52;4.30;;;1.50;;
20069;SDS011;10195;50.868;4.382;2022-07-29T00:50:18;8.35;;;2.08;;
20069;SDS011;10195;50.868;4.382;2022-07-29T00:52:43;4.53;;;1.80;;
20069;SDS011;10195;50.868;4.382;2022-07-29T00:55:11;5.85;;;1.63;;
20069;SDS011;10195;50.868;4.382;2022-07-29T00:57:38;7.40;;;1.75;;
20069;SDS011;10195;50.868;4.382;2022-07-29T01:00:07;5.70;;;1.83;;
20069;SDS011;10195;50.868;4.382;2022-07-29T01:02:34;6.47;;;1.77;;
20069;SDS011;10195;50.868;4.382;2022-07-29T01:05:01;6.93;;;1.80;;
20069;SDS011;10195;50.868;4.382;2022-07-29T01:07:28;4.80;;;1.50;;
20069;SDS011;10195;50.868;4.382;2022-07-29T01:09:57;4.50;;;1.80;;
20069;SDS011;10195;50.868;4.382;2022-07-29T01:12:27;7.45;;;1.90;;
20069;SDS011;10195;50.868;4.382;2022-07-29T01:14:57;10.20;;;1.98;;
20069;SDS011;10195;50.868;4.382;2022-07-29T01:23:08;3.78;;;1.52;;
20069;SDS011;10195;50.868;4.382;2022-07-29T01:28:44;16.43;;;1.90;;
20069;SDS011;10195;50.868;4.382;2022-07-29T01:31:35;5.75;;;1.80;;
20069;SDS011;10195;50.868;4.382;2022-07-29T01:34:37;7.13;;;1.50;;
20069;SDS011;10195;50.868;4.382;2022-07-29T01:40:05;4.55;;;1.63;;
20069;SDS011;10195;50.868;4.382;2022-07-29T01:42:45;6.18;;;1.80;;
20069;SDS011;10195;50.868;4.382;2022-07-29T01:45:18;3.63;;;1.50;;
20069;SDS011;10195;50.868;4.382;2022-07-29T01:50:53;7.93;;;1.80;;
20069;SDS011;10195;50.868;4.382;2022-07-29T01:53:34;4.75;;;1.50;;
20069;SDS011;10195;50.868;4.382;2022-07-29T01:56:04;5.18;;;2.03;;
20069;SDS011;10195;50.868;4.382;2022-07-29T01:58:31;7.93;;;1.80;;
20069;SDS011;10195;50.868;4.382;2022-07-29T02:00:59;3.13;;;1.70;;
20069;SDS011;10195;50.868;4.382;2022-07-29T02:03:27;5.07;;;1.67;;
20069;SDS011;10195;50.868;4.382;2022-07-29T02:05:55;12.07;;;2.08;;
20069;SDS011;10195;50.868;4.382;2022-07-29T02:08:21;7.63;;;1.88;;
20069;SDS011;10195;50.868;4.382;2022-07-29T02:10:48;5.63;;;1.80;;
20069;SDS011;10195;50.868;4.382;2022-07-29T02:13:16;4.15;;;1.70;;
20069;SDS011;10195;50.868;4.382;2022-07-29T02:15:43;4.70;;;1.88;;
20069;SDS011;10195;50.868;4.382;2022-07-29T02:18:17;7.20;;;2.13;;
20069;SDS011;10195;50.868;4.382;2022-07-29T02:20:46;5.03;;;1.85;;
20069;SDS011;10195;50.868;4.382;2022-07-29T02:23:14;5.85;;;1.90;;
20069;SDS011;10195;50.868;4.382;2022-07-29T02:25:47;3.70;;;1.73;;
20069;SDS011;10195;50.868;4.382;2022-07-29T02:28:16;6.23;;;1.90;;
20069;SDS011;10195;50.868;4.382;2022-07-29T02:30:44;9.40;;;2.10;;
20069;SDS011;10195;50.868;4.382;2022-07-29T02:33:12;5.45;;;2.20;;
20069;SDS011;10195;50.868;4.382;2022-07-29T02:35:39;6.32;;;1.83;;
20069;SDS011;10195;50.868;4.382;2022-07-29T02:38:06;3.42;;;1.92;;
20069;SDS011;10195;50.868;4.382;2022-07-29T02:40:52;8.75;;;1.98;;
20069;SDS011;10195;50.868;4.382;2022-07-29T02:43:20;7.73;;;2.27;;
20069;SDS011;10195;50.868;4.382;2022-07-29T02:45:47;6.65;;;2.00;;
20069;SDS011;10195;50.868;4.382;2022-07-29T02:48:16;5.93;;;2.10;;
20069;SDS011;10195;50.868;4.382;2022-07-29T02:50:47;6.75;;;2.47;;
20069;SDS011;10195;50.868;4.382;2022-07-29T02:53:20;5.80;;;2.00;;
20069;SDS011;10195;50.868;4.382;2022-07-29T02:55:57;7.47;;;2.20;;
20069;SDS011;10195;50.868;4.382;2022-07-29T03:00:55;5.25;;;1.60;;
20069;SDS011;10195;50.868;4.382;2022-07-29T03:03:24;8.35;;;2.10;;
20069;SDS011;10195;50.868;4.382;2022-07-29T03:05:56;6.35;;;2.10;;
20069;SDS011;10195;50.868;4.382;2022-07-29T03:08:24;6.85;;;2.00;;
20069;SDS011;10195;50.868;4.382;2022-07-29T03:10:52;10.18;;;2.20;;
20069;SDS011;10195;50.868;4.382;2022-07-29T03:13:18;4.93;;;1.80;;
20069;SDS011;10195;50.868;4.382;2022-07-29T03:15:44;9.50;;;2.15;;
20069;SDS011;10195;50.868;4.382;2022-07-29T03:18:10;7.70;;;2.42;;
20069;SDS011;10195;50.868;4.382;2022-07-29T03:20:37;3.10;;;1.75;;
20069;SDS011;10195;50.868;4.382;2022-07-29T03:23:03;12.52;;;2.22;;
20069;SDS011;10195;50.868;4.382;2022-07-29T03:25:29;4.00;;;2.10;;
20069;SDS011;10195;50.868;4.382;2022-07-29T03:27:56;7.00;;;2.47;;
20069;SDS011;10195;50.868;4.382;2022-07-29T03:30:21;13.50;;;2.63;;
20069;SDS011;10195;50.868;4.382;2022-07-29T03:32:48;14.43;;;2.25;;
20069;SDS011;10195;50.868;4.382;2022-07-29T03:35:15;5.57;;;2.03;;
20069;SDS011;10195;50.868;4.382;2022-07-29T03:37:44;15.30;;;2.22;;
20069;SDS011;10195;50.868;4.382;2022-07-29T03:40:11;8.18;;;2.35;;
20069;SDS011;10195;50.868;4.382;2022-07-29T03:42:43;8.23;;;1.90;;
20069;SDS011;10195;50.868;4.382;2022-07-29T03:45:12;5.13;;;1.95;;
20069;SDS011;10195;50.868;4.382;2022-07-29T03:48:02;7.63;;;2.65;;
20069;SDS011;10195;50.868;4.382;2022-07-29T03:50:34;13.57;;;2.20;;
20069;SDS011;10195;50.868;4.382;2022-07-29T03:53:00;6.90;;;2.22;;
20069;SDS011;10195;50.868;4.382;2022-07-29T03:55:28;9.13;;;2.40;;
20069;SDS011;10195;50.868;4.382;2022-07-29T03:57:57;6.05;;;2.63;;
20069;SDS011;10195;50.868;4.382;2022-07-29T04:00:23;7.60;;;2.35;;
20069;SDS011;10195;50.868;4.382;2022-07-29T04:02:50;10.57;;;2.60;;
20069;SDS011;10195;50.868;4.382;2022-07-29T04:05:18;6.25;;;2.22;;
20069;SDS011;10195;50.868;4.382;2022-07-29T04:07:44;9.18;;;2.35;;
20069;SDS011;10195;50.868;4.382;2022-07-29T04:10:11;5.93;;;2.60;;
20069;SDS011;10195;50.868;4.382;2022-07-29T04:12:37;3.83;;;2.38;;
20069;SDS011;10195;50.868;4.382;2022-07-29T04:15:03;7.87;;;2.63;;
20069;SDS011;10195;50.868;4.382;2022-07-29T04:17:29;5.13;;;2.30;;
20069;SDS011;10195;50.868;4.382;2022-07-29T04:19:54;10.33;;;3.10;;
20069;SDS011;10195;50.868;4.382;2022-07-29T04:22:20;4.57;;;2.50;;
20069;SDS011;10195;50.868;4.382;2022-07-29T04:24:46;7.22;;;2.55;;
20069;SDS011;10195;50.868;4.382;2022-07-29T04:27:11;5.93;;;2.80;;
20069;SDS011;10195;50.868;4.382;2022-07-29T04:29:37;12.80;;;3.25;;
20069;SDS011;10195;50.868;4.382;2022-07-29T04:32:02;6.10;;;3.03;;
20069;SDS011;10195;50.868;4.382;2022-07-29T04:34:28;10.60;;;3.00;;
20069;SDS011;10195;50.868;4.382;2022-07-29T04:36:54;8.48;;;2.83;;
20069;SDS011;10195;50.868;4.382;2022-07-29T04:39:20;14.18;;;3.55;;
20069;SDS011;10195;50.868;4.382;2022-07-29T04:41:46;10.15;;;3.30;;
20069;SDS011;10195;50.868;4.382;2022-07-29T04:44:12;26.02;;;3.05;;
20069;SDS011;10195;50.868;4.382;2022-07-29T04:46:38;10.13;;;3.22;;
20069;SDS011;10195;50.868;4.382;2022-07-29T04:49:03;9.20;;;3.33;;
20069;SDS011;10195;50.868;4.382;2022-07-29T04:51:29;9.20;;;3.25;;
20069;SDS011;10195;50.868;4.382;2022-07-29T04:53:55;4.72;;;2.72;;
20069;SDS011;10195;50.868;4.382;2022-07-29T04:56:21;8.88;;;3.05;;
20069;SDS011;10195;50.868;4.382;2022-07-29T04:58:46;7.10;;;3.03;;
20069;SDS011;10195;50.868;4.382;2022-07-29T05:01:12;10.30;;;3.25;;
20069;SDS011;10195;50.868;4.382;2022-07-29T05:03:39;8.18;;;3.17;;
20069;SDS011;10195;50.868;4.382;2022-07-29T05:06:05;9.13;;;3.22;;
20069;SDS011;10195;50.868;4.382;2022-07-29T05:08:31;13.38;;;3.47;;
20069;SDS011;10195;50.868;4.382;2022-07-29T05:10:56;9.27;;;2.90;;
20069;SDS011;10195;50.868;4.382;2022-07-29T05:13:22;8.07;;;3.50;;
20069;SDS011;10195;50.868;4.382;2022-07-29T05:15:48;9.15;;;3.03;;
20069;SDS011;10195;50.868;4.382;2022-07-29T05:18:14;7.75;;;3.25;;
20069;SDS011;10195;50.868;4.382;2022-07-29T05:20:39;6.75;;;3.20;;
20069;SDS011;10195;50.868;4.382;2022-07-29T05:23:05;7.70;;;3.10;;
20069;SDS011;10195;50.868;4.382;2022-07-29T05:25:30;10.80;;;3.25;;
20069;SDS011;10195;50.868;4.382;2022-07-29T05:27:56;9.88;;;3.08;;
20069;SDS011;10195;50.868;4.382;2022-07-29T05:30:22;5.70;;;3.13;;
20069;SDS011;10195;50.868;4.382;2022-07-29T05:32:48;9.15;;;3.30;;
20069;SDS011;10195;50.868;4.382;2022-07-29T05:35:14;9.98;;;2.83;;
20069;SDS011;10195;50.868;4.382;2022-07-29T05:37:40;10.63;;;3.00;;
20069;SDS011;10195;50.868;4.382;2022-07-29T05:40:06;9.93;;;3.40;;
20069;SDS011;10195;50.868;4.382;2022-07-29T05:42:33;11.00;;;2.92;;
20069;SDS011;10195;50.868;4.382;2022-07-29T05:44:59;11.40;;;3.10;;
20069;SDS011;10195;50.868;4.382;2022-07-29T05:47:25;6.75;;;3.03;;
20069;SDS011;10195;50.868;4.382;2022-07-29T05:49:51;10.57;;;3.05;;
20069;SDS011;10195;50.868;4.382;2022-07-29T05:52:17;9.57;;;3.42;;
20069;SDS011;10195;50.868;4.382;2022-07-29T05:54:43;8.18;;;3.35;;
20069;SDS011;10195;50.868;4.382;2022-07-29T05:57:15;7.15;;;3.10;;
20069;SDS011;10195;50.868;4.382;2022-07-29T05:59:45;7.15;;;3.13;;
20069;SDS011;10195;50.868;4.382;2022-07-29T06:02:10;7.00;;;2.63;;
20069;SDS011;10195;50.868;4.382;2022-07-29T06:04:36;6.80;;;2.70;;
20069;SDS011;10195;50.868;4.382;2022-07-29T06:07:02;12.45;;;3.30;;
20069;SDS011;10195;50.868;4.382;2022-07-29T06:09:28;7.05;;;2.75;;
20069;SDS011;10195;50.868;4.382;2022-07-29T06:11:54;7.72;;;2.55;;
20069;SDS011;10195;50.868;4.382;2022-07-29T06:14:19;5.97;;;2.58;;
20069;SDS011;10195;50.868;4.382;2022-07-29T06:16:45;7.68;;;3.08;;
20069;SDS011;10195;50.868;4.382;2022-07-29T06:19:11;8.52;;;2.70;;
20069;SDS011;10195;50.868;4.382;2022-07-29T06:21:40;6.90;;;2.92;;
20069;SDS011;10195;50.868;4.382;2022-07-29T06:24:10;6.22;;;2.85;;
20069;SDS011;10195;50.868;4.382;2022-07-29T06:26:37;9.70;;;3.20;;
20069;SDS011;10195;50.868;4.382;2022-07-29T06:29:04;8.88;;;2.80;;
20069;SDS011;10195;50.868;4.382;2022-07-29T06:31:29;3.88;;;2.58;;
20069;SDS011;10195;50.868;4.382;2022-07-29T06:33:55;9.45;;;2.92;;
20069;SDS011;10195;50.868;4.382;2022-07-29T06:36:21;6.78;;;2.90;;
20069;SDS011;10195;50.868;4.382;2022-07-29T06:38:46;7.22;;;2.80;;
20069;SDS011;10195;50.868;4.382;2022-07-29T06:41:12;5.75;;;2.75;;
20069;SDS011;10195;50.868;4.382;2022-07-29T06:43:41;5.10;;;2.88;;
20069;SDS011;10195;50.868;4.382;2022-07-29T06:46:11;11.73;;;2.75;;
20069;SDS011;10195;50.868;4.382;2022-07-29T06:48:39;8.73;;;3.17;;
20069;SDS011;10195;50.868;4.382;2022-07-29T06:51:07;7.07;;;2.83;;
20069;SDS011;10195;50.868;4.382;2022-07-29T06:53:33;6.95;;;3.20;;
20069;SDS011;10195;50.868;4.382;2022-07-29T06:56:00;15.32;;;2.95;;
20069;SDS011;10195;50.868;4.382;2022-07-29T06:58:27;6.65;;;2.85;;
20069;SDS011;10195;50.868;4.382;2022-07-29T07:00:53;5.75;;;2.65;;
20069;SDS011;10195;50.868;4.382;2022-07-29T07:03:19;14.02;;;2.83;;
20069;SDS011;10195;50.868;4.382;2022-07-29T07:05:45;8.95;;;2.92;;
20069;SDS011;10195;50.868;4.382;2022-07-29T07:08:11;9.13;;;3.15;;
20069;SDS011;10195;50.868;4.382;2022-07-29T07:10:38;11.13;;;3.38;;
20069;SDS011;10195;50.868;4.382;2022-07-29T07:13:04;14.13;;;3.40;;
20069;SDS011;10195;50.868;4.382;2022-07-29T07:15:30;6.45;;;3.35;;
20069;SDS011;10195;50.868;4.382;2022-07-29T07:17:56;10.82;;;3.47;;
20069;SDS011;10195;50.868;4.382;2022-07-29T07:20:24;13.55;;;4.07;;
20069;SDS011;10195;50.868;4.382;2022-07-29T07:22:50;12.65;;;3.40;;
20069;SDS011;10195;50.868;4.382;2022-07-29T07:25:15;5.72;;;3.35;;
20069;SDS011;10195;50.868;4.382;2022-07-29T07:27:42;12.10;;;3.42;;
20069;SDS011;10195;50.868;4.382;2022-07-29T07:30:09;8.65;;;3.25;;
20069;SDS011;10195;50.868;4.382;2022-07-29T07:32:35;5.88;;;2.90;;
20069;SDS011;10195;50.868;4.382;2022-07-29T07:35:01;5.95;;;3.20;;
20069;SDS011;10195;50.868;4.382;2022-07-29T07:37:28;8.30;;;3.03;;
20069;SDS011;10195;50.868;4.382;2022-07-29T07:39:54;6.55;;;3.30;;
20069;SDS011;10195;50.868;4.382;2022-07-29T07:42:19;5.47;;;3.08;;
20069;SDS011;10195;50.868;4.382;2022-07-29T07:44:45;10.05;;;3.42;;
20069;SDS011;10195;50.868;4.382;2022-07-29T07:47:13;9.40;;;3.33;;
20069;SDS011;10195;50.868;4.382;2022-07-29T07:49:39;10.50;;;3.10;;
20069;SDS011;10195;50.868;4.382;2022-07-29T07:52:05;9.95;;;3.60;;
20069;SDS011;10195;50.868;4.382;2022-07-29T07:54:30;6.68;;;2.97;;
20069;SDS011;10195;50.868;4.382;2022-07-29T07:56:56;11.05;;;3.60;;
20069;SDS011;10195;50.868;4.382;2022-07-29T07:59:22;10.15;;;2.83;;
20069;SDS011;10195;50.868;4.382;2022-07-29T08:01:48;5.97;;;2.67;;
20069;SDS011;10195;50.868;4.382;2022-07-29T08:04:14;16.77;;;3.15;;
20069;SDS011;10195;50.868;4.382;2022-07-29T08:06:39;7.50;;;2.60;;
20069;SDS011;10195;50.868;4.382;2022-07-29T08:09:05;5.35;;;2.67;;
20069;SDS011;10195;50.868;4.382;2022-07-29T08:11:31;9.18;;;2.95;;
20069;SDS011;10195;50.868;4.382;2022-07-29T08:13:57;8.48;;;2.80;;
20069;SDS011;10195;50.868;4.382;2022-07-29T08:16:23;4.32;;;3.00;;
20069;SDS011;10195;50.868;4.382;2022-07-29T08:18:50;8.63;;;2.40;;
20069;SDS011;10195;50.868;4.382;2022-07-29T08:21:16;6.07;;;2.90;;
20069;SDS011;10195;50.868;4.382;2022-07-29T08:23:42;5.50;;;2.80;;
20069;SDS011;10195;50.868;4.382;2022-07-29T08:26:14;5.13;;;2.85;;
20069;SDS011;10195;50.868;4.382;2022-07-29T08:28:41;6.80;;;2.92;;
20069;SDS011;10195;50.868;4.382;2022-07-29T08:31:10;4.82;;;2.50;;
20069;SDS011;10195;50.868;4.382;2022-07-29T08:33:36;5.38;;;2.00;;
20069;SDS011;10195;50.868;4.382;2022-07-29T08:36:02;4.38;;;2.00;;
20069;SDS011;10195;50.868;4.382;2022-07-29T08:38:28;6.43;;;2.38;;
20069;SDS011;10195;50.868;4.382;2022-07-29T08:40:54;3.38;;;2.25;;
20069;SDS011;10195;50.868;4.382;2022-07-29T08:43:20;6.43;;;2.05;;
20069;SDS011;10195;50.868;4.382;2022-07-29T08:45:46;7.70;;;2.35;;
20069;SDS011;10195;50.868;4.382;2022-07-29T08:48:13;4.47;;;1.98;;
20069;SDS011;10195;50.868;4.382;2022-07-29T08:50:41;3.78;;;1.90;;
20069;SDS011;10195;50.868;4.382;2022-07-29T08:53:10;3.08;;;1.83;;
20069;SDS011;10195;50.868;4.382;2022-07-29T08:55:48;6.32;;;1.95;;
20069;SDS011;10195;50.868;4.382;2022-07-29T08:58:14;2.25;;;1.40;;
20069;SDS011;10195;50.868;4.382;2022-07-29T09:00:42;6.68;;;1.63;;
20069;SDS011;10195;50.868;4.382;2022-07-29T09:03:14;6.13;;;1.83;;
20069;SDS011;10195;50.868;4.382;2022-07-29T09:05:42;9.02;;;1.75;;
20069;SDS011;10195;50.868;4.382;2022-07-29T09:08:10;14.02;;;2.25;;
20069;SDS011;10195;50.868;4.382;2022-07-29T09:10:37;5.65;;;2.10;;
20069;SDS011;10195;50.868;4.382;2022-07-29T09:13:03;3.88;;;1.80;;
20069;SDS011;10195;50.868;4.382;2022-07-29T09:15:29;5.90;;;1.95;;
20069;SDS011;10195;50.868;4.382;2022-07-29T09:17:54;4.05;;;1.70;;
20069;SDS011;10195;50.868;4.382;2022-07-29T09:20:24;8.98;;;1.98;;
20069;SDS011;10195;50.868;4.382;2022-07-29T09:22:50;5.90;;;1.92;;
20069;SDS011;10195;50.868;4.382;2022-07-29T09:25:34;4.60;;;2.28;;
20069;SDS011;10195;50.868;4.382;2022-07-29T09:28:07;7.28;;;3.05;;
20069;SDS011;10195;50.868;4.382;2022-07-29T09:30:34;4.78;;;1.95;;
20069;SDS011;10195;50.868;4.382;2022-07-29T09:33:01;7.70;;;2.17;;
20069;SDS011;10195;50.868;4.382;2022-07-29T09:35:28;5.10;;;2.17;;
20069;SDS011;10195;50.868;4.382;2022-07-29T09:37:54;5.93;;;2.05;;
20069;SDS011;10195;50.868;4.382;2022-07-29T09:40:25;6.75;;;2.28;;
20069;SDS011;10195;50.868;4.382;2022-07-29T09:42:52;5.00;;;2.13;;
20069;SDS011;10195;50.868;4.382;2022-07-29T09:45:31;8.88;;;2.20;;
20069;SDS011;10195;50.868;4.382;2022-07-29T09:47:59;4.57;;;1.70;;
20069;SDS011;10195;50.868;4.382;2022-07-29T09:50:38;4.47;;;1.85;;
20069;SDS011;10195;50.868;4.382;2022-07-29T09:53:05;3.95;;;1.83;;
20069;SDS011;10195;50.868;4.382;2022-07-29T09:55:31;9.77;;;2.20;;
20069;SDS011;10195;50.868;4.382;2022-07-29T09:58:19;5.45;;;2.03;;
20069;SDS011;10195;50.868;4.382;2022-07-29T10:00:46;3.83;;;1.70;;
20069;SDS011;10195;50.868;4.382;2022-07-29T10:03:13;5.55;;;2.10;;
20069;SDS011;10195;50.868;4.382;2022-07-29T10:05:40;6.38;;;2.40;;
20069;SDS011;10195;50.868;4.382;2022-07-29T10:08:07;5.85;;;2.42;;
20069;SDS011;10195;50.868;4.382;2022-07-29T10:10:35;5.68;;;2.40;;
20069;SDS011;10195;50.868;4.382;2022-07-29T10:13:03;7.05;;;2.20;;
20069;SDS011;10195;50.868;4.382;2022-07-29T10:15:31;6.15;;;1.83;;
20069;SDS011;10195;50.868;4.382;2022-07-29T10:17:58;8.15;;;2.13;;
20069;SDS011;10195;50.868;4.382;2022-07-29T10:20:25;5.35;;;2.00;;
20069;SDS011;10195;50.868;4.382;2022-07-29T10:22:52;5.43;;;2.22;;
20069;SDS011;10195;50.868;4.382;2022-07-29T10:25:18;7.05;;;1.88;;
20069;SDS011;10195;50.868;4.382;2022-07-29T10:27:47;5.15;;;1.63;;
20069;SDS011;10195;50.868;4.382;2022-07-29T10:30:14;8.57;;;1.88;;
20069;SDS011;10195;50.868;4.382;2022-07-29T10:38:02;8.55;;;1.80;;
20069;SDS011;10195;50.868;4.382;2022-07-29T10:40:55;5.18;;;1.65;;
20069;SDS011;10195;50.868;4.382;2022-07-29T10:44:00;4.78;;;2.00;;
20069;SDS011;10195;50.868;4.382;2022-07-29T10:46:34;4.85;;;1.70;;
20069;SDS011;10195;50.868;4.382;2022-07-29T10:49:05;6.80;;;1.85;;
20069;SDS011;10195;50.868;4.382;2022-07-29T10:51:55;5.65;;;1.75;;
20069;SDS011;10195;50.868;4.382;2022-07-29T10:59:48;6.65;;;2.63;;
20069;SDS011;10195;50.868;4.382;2022-07-29T11:05:16;4.22;;;2.30;;
20069;SDS011;10195;50.868;4.382;2022-07-29T11:10:37;8.10;;;2.40;;
20069;SDS011;10195;50.868;4.382;2022-07-29T11:13:04;5.97;;;2.65;;
20069;SDS011;10195;50.868;4.382;2022-07-29T11:15:32;5.30;;;2.45;;
20069;SDS011;10195;50.868;4.382;2022-07-29T11:18:19;8.20;;;2.70;;
20069;SDS011;10195;50.868;4.382;2022-07-29T11:20:46;6.95;;;2.85;;
20069;SDS011;10195;50.868;4.382;2022-07-29T11:23:18;6.53;;;3.22;;
20069;SDS011;10195;50.868;4.382;2022-07-29T11:28:52;6.78;;;2.58;;
20069;SDS011;10195;50.868;4.382;2022-07-29T11:34:15;6.43;;;3.00;;
20069;SDS011;10195;50.868;4.382;2022-07-29T11:39:35;12.23;;;3.50;;
20069;SDS011;10195;50.868;4.382;2022-07-29T11:44:59;8.32;;;3.80;;
20069;SDS011;10195;50.868;4.382;2022-07-29T11:47:27;12.35;;;4.07;;
20069;SDS011;10195;50.868;4.382;2022-07-29T11:49:54;8.40;;;3.67;;
20069;SDS011;10195;50.868;4.382;2022-07-29T11:52:22;11.02;;;3.10;;
20069;SDS011;10195;50.868;4.382;2022-07-29T11:54:49;6.00;;;2.90;;
20069;SDS011;10195;50.868;4.382;2022-07-29T11:57:19;7.30;;;3.28;;
20069;SDS011;10195;50.868;4.382;2022-07-29T11:59:45;7.32;;;2.42;;
20069;SDS011;10195;50.868;4.382;2022-07-29T12:02:12;7.72;;;2.60;;
20069;SDS011;10195;50.868;4.382;2022-07-29T12:04:49;12.82;;;2.38;;
20069;SDS011;10195;50.868;4.382;2022-07-29T12:07:15;11.75;;;3.25;;
20069;SDS011;10195;50.868;4.382;2022-07-29T12:09:44;8.35;;;2.45;;
20069;SDS011;10195;50.868;4.382;2022-07-29T12:12:17;15.57;;;2.83;;
20069;SDS011;10195;50.868;4.382;2022-07-29T12:14:44;6.15;;;2.95;;
20069;SDS011;10195;50.868;4.382;2022-07-29T12:17:28;7.85;;;2.88;;
20069;SDS011;10195;50.868;4.382;2022-07-29T12:19:54;10.30;;;3.03;;
20069;SDS011;10195;50.868;4.382;2022-07-29T12:22:24;7.05;;;2.60;;
20069;SDS011;10195;50.868;4.382;2022-07-29T12:24:52;6.88;;;2.75;;
20069;SDS011;10195;50.868;4.382;2022-07-29T12:27:18;8.23;;;2.88;;
20069;SDS011;10195;50.868;4.382;2022-07-29T12:29:44;8.75;;;2.45;;
20069;SDS011;10195;50.868;4.382;2022-07-29T12:32:19;7.57;;;2.90;;
20069;SDS011;10195;50.868;4.382;2022-07-29T12:34:45;11.90;;;3.05;;
20069;SDS011;10195;50.868;4.382;2022-07-29T12:37:11;15.23;;;3.20;;
20069;SDS011;10195;50.868;4.382;2022-07-29T12:39:37;10.02;;;2.88;;
20069;SDS011;10195;50.868;4.382;2022-07-29T12:42:12;7.72;;;2.50;;
20069;SDS011;10195;50.868;4.382;2022-07-29T12:44:48;7.60;;;2.97;;
20069;SDS011;10195;50.868;4.382;2022-07-29T12:47:15;11.63;;;2.63;;
20069;SDS011;10195;50.868;4.382;2022-07-29T12:49:43;8.23;;;3.10;;
20069;SDS011;10195;50.868;4.382;2022-07-29T12:52:22;10.77;;;3.15;;
20069;SDS011;10195;50.868;4.382;2022-07-29T12:54:58;5.32;;;2.28;;
20069;SDS011;10195;50.868;4.382;2022-07-29T12:57:25;9.07;;;3.22;;
20069;SDS011;10195;50.868;4.382;2022-07-29T13:02:35;8.90;;;2.58;;
20069;SDS011;10195;50.868;4.382;2022-07-29T13:05:02;9.75;;;2.10;;
20069;SDS011;10195;50.868;4.382;2022-07-29T13:07:30;4.68;;;2.13;;
20069;SDS011;10195;50.868;4.382;2022-07-29T13:12:36;8.32;;;2.20;;
20069;SDS011;10195;50.868;4.382;2022-07-29T13:15:11;4.82;;;1.77;;
20069;SDS011;10195;50.868;4.382;2022-07-29T13:17:42;5.40;;;2.30;;
20069;SDS011;10195;50.868;4.382;2022-07-29T13:20:09;4.75;;;1.70;;
20069;SDS011;10195;50.868;4.382;2022-07-29T13:22:39;10.43;;;2.30;;
20069;SDS011;10195;50.868;4.382;2022-07-29T13:25:07;10.43;;;2.30;;
20069;SDS011;10195;50.868;4.382;2022-07-29T13:27:34;8.07;;;2.42;;
20069;SDS011;10195;50.868;4.382;2022-07-29T13:30:04;6.80;;;1.77;;
20069;SDS011;10195;50.868;4.382;2022-07-29T13:32:32;5.43;;;1.77;;
20069;SDS011;10195;50.868;4.382;2022-07-29T13:35:02;6.50;;;2.53;;
20069;SDS011;10195;50.868;4.382;2022-07-29T13:37:29;4.35;;;2.03;;
20069;SDS011;10195;50.868;4.382;2022-07-29T13:39:57;8.77;;;2.72;;
20069;SDS011;10195;50.868;4.382;2022-07-29T13:42:24;5.40;;;2.28;;
20069;SDS011;10195;50.868;4.382;2022-07-29T13:44:51;7.55;;;2.42;;
20069;SDS011;10195;50.868;4.382;2022-07-29T13:47:20;5.40;;;1.83;;
20069;SDS011;10195;50.868;4.382;2022-07-29T13:49:46;7.30;;;2.10;;
20069;SDS011;10195;50.868;4.382;2022-07-29T13:52:13;4.32;;;1.73;;
20069;SDS011;10195;50.868;4.382;2022-07-29T13:54:38;14.43;;;2.28;;
20069;SDS011;10195;50.868;4.382;2022-07-29T13:57:04;5.15;;;2.05;;
20069;SDS011;10195;50.868;4.382;2022-07-29T13:59:30;5.45;;;1.90;;
20069;SDS011;10195;50.868;4.382;2022-07-29T14:01:56;6.25;;;2.00;;
20069;SDS011;10195;50.868;4.382;2022-07-29T14:04:21;3.53;;;1.80;;
20069;SDS011;10195;50.868;4.382;2022-07-29T14:06:48;6.28;;;1.42;;
20069;SDS011;10195;50.868;4.382;2022-07-29T14:09:15;4.15;;;1.52;;
20069;SDS011;10195;50.868;4.382;2022-07-29T14:11:40;7.50;;;1.77;;
20069;SDS011;10195;50.868;4.382;2022-07-29T14:14:06;7.82;;;1.80;;
20069;SDS011;10195;50.868;4.382;2022-07-29T14:16:32;7.72;;;2.05;;
20069;SDS011;10195;50.868;4.382;2022-07-29T14:18:58;7.65;;;1.88;;
20069;SDS011;10195;50.868;4.382;2022-07-29T14:21:24;6.53;;;2.45;;
20069;SDS011;10195;50.868;4.382;2022-07-29T14:23:49;6.28;;;2.15;;
20069;SDS011;10195;50.868;4.382;2022-07-29T14:26:17;7.78;;;2.03;;
20069;SDS011;10195;50.868;4.382;2022-07-29T14:28:42;4.03;;;1.85;;
20069;SDS011;10195;50.868;4.382;2022-07-29T14:31:09;11.80;;;1.80;;
20069;SDS011;10195;50.868;4.382;2022-07-29T14:33:35;3.85;;;1.83;;
20069;SDS011;10195;50.868;4.382;2022-07-29T14:36:00;4.70;;;1.73;;
20069;SDS011;10195;50.868;4.382;2022-07-29T14:38:26;6.82;;;1.77;;
20069;SDS011;10195;50.868;4.382;2022-07-29T14:40:51;4.57;;;1.60;;
20069;SDS011;10195;50.868;4.382;2022-07-29T14:43:17;4.13;;;1.80;;
20069;SDS011;10195;50.868;4.382;2022-07-29T14:45:43;5.53;;;2.00;;
20069;SDS011;10195;50.868;4.382;2022-07-29T14:48:08;5.15;;;1.90;;
20069;SDS011;10195;50.868;4.382;2022-07-29T14:50:36;7.07;;;1.92;;
20069;SDS011;10195;50.868;4.382;2022-07-29T14:53:02;6.03;;;1.85;;
20069;SDS011;10195;50.868;4.382;2022-07-29T14:55:28;8.45;;;2.00;;
20069;SDS011;10195;50.868;4.382;2022-07-29T14:57:54;5.03;;;1.60;;
20069;SDS011;10195;50.868;4.382;2022-07-29T15:00:20;8.43;;;2.28;;
20069;SDS011;10195;50.868;4.382;2022-07-29T15:02:46;7.70;;;2.30;;
20069;SDS011;10195;50.868;4.382;2022-07-29T15:05:13;5.32;;;1.85;;
20069;SDS011;10195;50.868;4.382;2022-07-29T15:07:38;7.22;;;2.22;;
20069;SDS011;10195;50.868;4.382;2022-07-29T15:10:04;6.10;;;2.10;;
20069;SDS011;10195;50.868;4.382;2022-07-29T15:12:30;6.22;;;1.75;;
20069;SDS011;10195;50.868;4.382;2022-07-29T15:14:56;5.20;;;1.75;;
20069;SDS011;10195;50.868;4.382;2022-07-29T15:17:22;6.93;;;1.70;;
20069;SDS011;10195;50.868;4.382;2022-07-29T15:19:47;6.28;;;2.58;;
20069;SDS011;10195;50.868;4.382;2022-07-29T15:22:13;3.78;;;1.60;;
20069;SDS011;10195;50.868;4.382;2022-07-29T15:24:39;7.75;;;2.25;;
20069;SDS011;10195;50.868;4.382;2022-07-29T15:27:04;5.80;;;1.80;;
20069;SDS011;10195;50.868;4.382;2022-07-29T15:29:30;8.80;;;2.40;;
20069;SDS011;10195;50.868;4.382;2022-07-29T15:31:56;12.73;;;1.92;;
20069;SDS011;10195;50.868;4.382;2022-07-29T15:34:21;6.05;;;2.25;;
20069;SDS011;10195;50.868;4.382;2022-07-29T15:36:48;9.00;;;2.05;;
20069;SDS011;10195;50.868;4.382;2022-07-29T15:39:15;4.80;;;2.50;;
20069;SDS011;10195;50.868;4.382;2022-07-29T15:41:41;9.25;;;2.20;;